createdAt,value
2022-08-22T00:00:24.986Z,20.800000
2022-08-22T00:02:43.622Z,20.581818
2022-08-22T00:02:53.141Z,20.990000
2022-08-22T00:03:12.735Z,20.000000
2022-08-22T00:05:24.929Z,20.790909
2022-08-22T00:10:25.922Z,20.700000
2022-08-22T00:15:42.485Z,20.622222
2022-08-22T00:20:28.209Z,20.600000
2022-08-22T00:25:26.172Z,20.600000
2022-08-22T00:30:25.003Z,20.600000
2022-08-22T00:35:24.945Z,20.600000
2022-08-22T00:40:24.933Z,20.600000
2022-08-22T00:45:25.023Z,20.680000
2022-08-22T00:50:25.021Z,20.625000
2022-08-22T00:55:36.960Z,20.680000
2022-08-22T01:00:25.002Z,20.700000
2022-08-22T01:05:24.999Z,20.691667
2022-08-22T01:10:25.009Z,20.600000
2022-08-22T01:15:25.016Z,20.600000
2022-08-22T01:20:25.028Z,20.523077
2022-08-22T01:25:26.082Z,20.500000
2022-08-22T01:30:24.891Z,20.590909
2022-08-22T01:35:49.008Z,20.600000
2022-08-22T01:40:24.971Z,20.622222
2022-08-22T01:45:25.300Z,20.700000
2022-08-22T01:50:25.070Z,20.700000
2022-08-22T01:55:25.021Z,20.600000
2022-08-22T02:00:34.828Z,20.600000
2022-08-22T02:05:25.114Z,20.600000
2022-08-22T02:10:25.202Z,20.500000
2022-08-22T02:15:24.984Z,20.500000
2022-08-22T02:20:37.407Z,20.500000
2022-08-22T02:25:25.166Z,20.400000
2022-08-22T02:30:25.002Z,20.325000
2022-08-22T02:35:36.948Z,20.210000
2022-08-22T02:40:25.059Z,20.108333
2022-08-22T02:45:37.025Z,20.100000
2022-08-22T02:50:25.009Z,20.100000
2022-08-22T02:55:37.095Z,20.100000
2022-08-22T03:01:01.047Z,20.100000
2022-08-22T03:05:25.110Z,20.100000
2022-08-22T03:10:25.281Z,20.100000
2022-08-22T03:15:25.019Z,20.100000
2022-08-22T03:20:49.083Z,20.050000
2022-08-22T03:25:25.088Z,20.100000
2022-08-22T03:30:25.105Z,20.172727
2022-08-22T03:35:25.084Z,20.200000
2022-08-22T03:40:31.509Z,20.200000
2022-08-22T03:45:25.182Z,20.218182
2022-08-22T03:50:25.134Z,20.300000
2022-08-22T03:55:25.781Z,20.309091
2022-08-22T04:00:37.154Z,20.400000
2022-08-22T04:05:25.337Z,20.511111
2022-08-22T04:10:25.130Z,20.645455
2022-08-22T04:15:25.108Z,20.845455
2022-08-22T04:20:25.152Z,20.990909
2022-08-22T04:25:25.070Z,21.181818
2022-08-22T04:30:25.013Z,21.341667
2022-08-22T04:35:25.185Z,21.488889
2022-08-22T04:40:25.242Z,21.700000
2022-08-22T04:45:25.615Z,21.877778
2022-08-22T04:50:25.208Z,22.054545
2022-08-22T04:55:37.962Z,22.218182
2022-08-22T05:00:25.204Z,22.300000
2022-08-22T05:05:25.284Z,22.300000
2022-08-22T05:10:25.173Z,22.381818
2022-08-22T05:15:25.128Z,22.490909
2022-08-22T05:20:25.177Z,22.563636
2022-08-22T05:25:25.428Z,22.500000
2022-08-22T05:30:25.591Z,22.509091
2022-08-22T05:35:25.262Z,22.600000
2022-08-22T05:40:25.279Z,22.538462
2022-08-22T05:45:25.347Z,22.427273
2022-08-22T05:50:25.241Z,22.300000
2022-08-22T05:55:25.210Z,22.277778
2022-08-22T06:00:25.209Z,22.472727
2022-08-22T06:05:25.245Z,22.783333
2022-08-22T06:10:25.235Z,23.038462
2022-08-22T06:15:25.198Z,23.245455
2022-08-22T06:20:25.865Z,23.391667
2022-08-22T06:25:25.204Z,23.463636
2022-08-22T06:30:25.296Z,23.580000
2022-08-22T06:35:37.263Z,23.788889
2022-08-22T06:40:25.362Z,23.918182
2022-08-22T06:45:25.353Z,23.922222
2022-08-22T06:50:25.225Z,23.830769
2022-08-22T06:55:25.301Z,23.922222
2022-08-22T07:00:25.306Z,24.200000
2022-08-22T07:05:25.323Z,24.527273
2022-08-22T07:10:26.058Z,24.638462
2022-08-22T07:15:25.565Z,24.872727
2022-08-22T07:20:37.290Z,25.107692
2022-08-22T07:25:25.267Z,25.340000
2022-08-22T07:30:28.066Z,25.300000
2022-08-22T07:35:25.570Z,25.491667
2022-08-22T07:40:37.420Z,25.670000
2022-08-22T07:45:25.531Z,25.910000
2022-08-22T07:50:25.407Z,26.041667
2022-08-22T07:55:25.402Z,26.154545
2022-08-22T08:00:25.461Z,26.371429
2022-08-22T08:05:49.362Z,26.600000
2022-08-22T08:10:25.308Z,26.790000
2022-08-22T08:15:25.471Z,26.855556
2022-08-22T08:20:27.036Z,26.980000
2022-08-22T08:25:25.363Z,27.318182
2022-08-22T08:30:25.564Z,27.333333
2022-08-22T08:35:25.623Z,27.072727
2022-08-22T08:40:25.580Z,26.820000
2022-08-22T08:45:25.348Z,26.827273
2022-08-22T08:50:37.477Z,26.983333
2022-08-22T08:55:25.358Z,27.160000
2022-08-22T09:00:29.192Z,27.290000
2022-08-22T09:05:25.593Z,27.610000
2022-08-22T09:10:27.348Z,27.681818
2022-08-22T09:15:25.419Z,27.327273
2022-08-22T09:20:25.671Z,26.691667
2022-08-22T09:25:27.902Z,26.200000
2022-08-22T09:30:28.859Z,26.158333
2022-08-22T09:35:25.474Z,26.470000
2022-08-22T09:40:30.834Z,26.738462
2022-08-22T09:45:25.555Z,26.533333
2022-08-22T09:50:25.543Z,26.190909
2022-08-22T09:55:34.951Z,26.136364
2022-08-22T10:00:25.838Z,26.383333
2022-08-22T10:05:41.062Z,26.450000
2022-08-22T10:10:26.341Z,26.445455
2022-08-22T10:15:25.527Z,26.433333
2022-08-22T10:20:25.475Z,26.530000
2022-08-22T10:25:25.530Z,26.550000
2022-08-22T10:30:25.580Z,26.384615
2022-08-22T10:35:25.716Z,26.311111
2022-08-22T10:40:25.745Z,26.440000
2022-08-22T10:45:35.734Z,26.300000
2022-08-22T10:50:31.074Z,26.254545
2022-08-22T10:55:25.579Z,26.430000
2022-08-22T11:00:25.743Z,26.654545
2022-08-22T11:05:25.499Z,26.763636
2022-08-22T11:10:25.558Z,26.750000
2022-08-22T11:15:34.685Z,26.610000
2022-08-22T11:20:25.535Z,26.590909
2022-08-22T11:25:35.719Z,26.550000
2022-08-22T11:30:25.924Z,26.516667
2022-08-22T11:35:25.913Z,26.581818
2022-08-22T11:40:25.756Z,26.600000
2022-08-22T11:45:25.657Z,26.608333
2022-08-22T11:50:38.797Z,26.525000
2022-08-22T11:55:37.539Z,26.350000
2022-08-22T12:00:25.575Z,26.200000
2022-08-22T12:05:37.717Z,26.110000
2022-08-22T12:10:25.580Z,26.233333
2022-08-22T12:15:25.707Z,26.483333
2022-08-22T12:20:25.612Z,26.663636
2022-08-22T12:25:25.783Z,26.575000
2022-08-22T12:30:25.847Z,26.500000
2022-08-22T12:35:29.674Z,26.420000
2022-08-22T12:40:26.340Z,26.475000
2022-08-22T12:45:25.562Z,26.400000
2022-08-22T12:50:25.575Z,26.415385
2022-08-22T12:55:25.523Z,26.266667
2022-08-22T13:00:27.000Z,26.236364
2022-08-22T13:05:25.564Z,26.108333
2022-08-22T13:10:25.583Z,26.054545
2022-08-22T13:15:25.620Z,26.009091
2022-08-22T13:20:26.606Z,26.100000
2022-08-22T13:25:26.622Z,26.081818
2022-08-22T13:30:25.737Z,25.966667
2022-08-22T13:35:25.694Z,25.916667
2022-08-22T13:40:25.967Z,26.072727
2022-08-22T13:45:37.652Z,26.127273
2022-08-22T13:50:25.661Z,26.115385
2022-08-22T13:55:29.405Z,25.910000
2022-08-22T14:00:29.001Z,25.753846
2022-08-22T14:05:26.893Z,25.700000
2022-08-22T14:10:25.660Z,25.622222
2022-08-22T14:15:25.593Z,25.600000
2022-08-22T14:20:50.056Z,25.600000
2022-08-22T14:25:25.665Z,25.600000
2022-08-22T14:30:25.723Z,25.553846
2022-08-22T14:35:35.382Z,25.500000
2022-08-22T14:40:26.096Z,25.458333
2022-08-22T14:45:25.705Z,25.500000
2022-08-22T14:50:49.751Z,25.491667
2022-08-22T14:55:25.737Z,25.454545
2022-08-22T15:00:25.920Z,25.488889
2022-08-22T15:05:25.901Z,25.477778
2022-08-22T15:10:25.946Z,25.500000
2022-08-22T15:15:49.237Z,25.450000
2022-08-22T15:20:27.701Z,25.300000
2022-08-22T15:26:38.132Z,25.200000
2022-08-22T15:30:26.975Z,25.100000
2022-08-22T15:37:09.944Z,25.000000
2022-08-22T15:47:27.782Z,25.000000
2022-08-22T15:50:37.919Z,25.000000
2022-08-22T15:56:49.867Z,25.000000
2022-08-22T16:00:28.039Z,24.900000
2022-08-22T16:05:54.997Z,24.883333
2022-08-22T16:10:38.035Z,24.800000
2022-08-22T16:15:25.885Z,24.800000
2022-08-22T16:21:02.269Z,24.700000
2022-08-22T16:25:25.913Z,24.600000
2022-08-22T16:30:25.993Z,24.566667
2022-08-22T16:35:25.958Z,24.475000
2022-08-22T16:40:27.195Z,24.361538
2022-08-22T16:45:25.967Z,24.250000
2022-08-22T16:50:37.918Z,24.150000
2022-08-22T16:55:37.964Z,24.037500
2022-08-22T17:00:38.062Z,23.918182
2022-08-22T17:05:49.891Z,23.900000
2022-08-22T17:10:26.645Z,23.900000
2022-08-22T17:15:25.995Z,23.866667
2022-08-22T17:21:02.022Z,23.683333
2022-08-22T17:25:39.410Z,23.600000
2022-08-22T17:30:38.071Z,23.555556
2022-08-22T17:35:25.976Z,23.350000
2022-08-22T17:40:26.393Z,23.088889
2022-08-22T17:45:38.387Z,22.941667
2022-08-22T17:50:26.089Z,22.833333
2022-08-22T17:59:49.977Z,22.800000
2022-08-22T18:05:25.932Z,22.975000
2022-08-22T18:10:38.057Z,23.080000
2022-08-22T18:15:25.937Z,23.010000
2022-08-22T18:20:26.113Z,22.792308
2022-08-22T18:25:26.140Z,22.585714
2022-08-22T18:30:26.051Z,22.366667
2022-08-22T18:35:26.148Z,22.100000
2022-08-22T18:40:50.585Z,21.785714
2022-08-22T18:45:25.873Z,21.600000
2022-08-22T18:50:25.926Z,21.525000
2022-08-22T18:55:25.917Z,21.500000
2022-08-22T19:00:38.078Z,21.483333
2022-08-22T19:05:26.031Z,21.400000
2022-08-22T19:10:26.097Z,21.475000
2022-08-22T19:15:25.956Z,21.545455
2022-08-22T19:20:26.161Z,21.562500
2022-08-22T19:25:26.102Z,21.500000
2022-08-22T19:30:26.025Z,21.545455
2022-08-22T19:35:26.572Z,21.636364
2022-08-22T19:40:26.430Z,21.788889
2022-08-22T19:45:38.078Z,21.900000
2022-08-22T19:50:26.109Z,21.900000
2022-08-22T19:55:26.080Z,21.866667
2022-08-22T20:00:25.974Z,21.800000
2022-08-22T20:05:26.224Z,21.800000
2022-08-22T20:10:26.247Z,21.800000
2022-08-22T20:15:26.050Z,21.744444
2022-08-22T20:20:38.094Z,21.700000
2022-08-22T20:25:42.383Z,21.600000
2022-08-22T20:30:38.022Z,21.540000
2022-08-22T20:35:37.982Z,21.500000
2022-08-22T20:40:57.042Z,21.400000
2022-08-22T20:45:26.060Z,21.311111
2022-08-22T20:50:26.460Z,21.300000
2022-08-22T20:55:30.520Z,21.300000
2022-08-22T21:00:26.090Z,21.200000
2022-08-22T21:05:26.013Z,21.200000
2022-08-22T21:10:38.167Z,21.125000
2022-08-22T21:15:25.975Z,21.088889
2022-08-22T21:20:26.018Z,21.000000
2022-08-22T21:25:26.614Z,20.970000
2022-08-22T21:30:26.153Z,20.900000
2022-08-22T21:35:25.897Z,20.790000
2022-08-22T21:40:26.554Z,20.645455
2022-08-22T21:45:26.006Z,20.600000
2022-08-22T21:50:26.079Z,20.600000
2022-08-22T21:55:26.296Z,20.600000
2022-08-22T22:00:25.995Z,20.600000
2022-08-22T22:05:38.021Z,20.577778
2022-08-22T22:10:38.040Z,20.500000
2022-08-22T22:15:26.146Z,20.433333
2022-08-22T22:20:25.987Z,20.477778
2022-08-22T22:25:39.953Z,20.500000
2022-08-22T22:30:26.654Z,20.500000
2022-08-22T22:35:25.974Z,20.472727
2022-08-22T22:40:26.039Z,20.309091
2022-08-22T22:45:38.022Z,20.127273
2022-08-22T22:50:26.045Z,20.100000
2022-08-22T22:55:26.071Z,20.100000
2022-08-22T23:00:29.124Z,20.181818
2022-08-22T23:05:26.168Z,20.100000
2022-08-22T23:10:25.983Z,20.100000
2022-08-22T23:15:26.037Z,20.100000
2022-08-22T23:20:26.548Z,20.100000
2022-08-22T23:25:26.949Z,20.100000
2022-08-22T23:30:26.118Z,20.109091
2022-08-22T23:35:50.021Z,20.225000
2022-08-22T23:40:26.340Z,20.409091
2022-08-22T23:45:26.167Z,20.500000
2022-08-22T23:50:25.965Z,20.500000
2022-08-22T23:55:26.627Z,20.566667
